Time;durP1;ratioP1;P1;durP2;ratioP2;P2;SDS_P1;SDS_P2;PMS_P1;PMS_P2;Temp;Humidity;BMP_temperature;BMP_pressure;BME280_temperature;BME280_humidity;BME280_pressure;Samples;Min_cycle;Max_cycle;Signal;HPM_P1;HPM_P2
2021/03/30 00:00:40;;;;;;;130.90;59.73;;;;;;;4.19;93.49;100867.33;1808006;79;20928;-69
2021/03/30 00:03:08;;;;;;;117.33;56.15;;;;;;;4.20;93.63;100865.73;1807983;79;20924;-69
2021/03/30 00:05:35;;;;;;;113.80;54.05;;;;;;;4.22;93.58;100866.31;1807986;79;21090;-69
2021/03/30 00:08:06;;;;;;;114.47;52.25;;;;;;;4.22;93.62;100863.59;1807975;79;21257;-69
2021/03/30 00:10:37;;;;;;;103.05;50.10;;;;;;;4.22;93.70;100862.23;1779153;79;21094;-69
2021/03/30 00:13:06;;;;;;;115.72;53.20;;;;;;;4.22;93.78;100860.05;1808145;78;20957;-68
2021/03/30 00:15:34;;;;;;;109.52;53.52;;;;;;;4.21;93.85;100852.44;1778875;79;20995;-68
2021/03/30 00:18:02;;;;;;;116.80;55.10;;;;;;;4.21;93.90;100854.33;1807993;79;20976;-68
2021/03/30 00:20:30;;;;;;;116.00;53.38;;;;;;;4.22;93.93;100855.98;1808031;79;21456;-69
2021/03/30 00:22:58;;;;;;;101.65;50.20;;;;;;;4.23;94.03;100860.34;1807953;79;20932;-69
2021/03/30 00:25:26;;;;;;;112.47;53.23;;;;;;;4.25;94.05;100856.85;1807954;79;21031;-68
2021/03/30 00:27:54;;;;;;;106.32;49.90;;;;;;;4.25;94.04;100855.49;1807957;79;20952;-68
2021/03/30 00:30:23;;;;;;;102.87;51.70;;;;;;;4.23;94.11;100858.45;1808012;79;21011;-68
2021/03/30 00:32:51;;;;;;;102.30;50.48;;;;;;;4.23;94.17;100850.83;1807994;79;21357;-68
2021/03/30 00:35:19;;;;;;;110.20;51.88;;;;;;;4.23;94.20;100853.55;1807748;79;20904;-68
2021/03/30 00:37:46;;;;;;;110.32;52.50;;;;;;;4.22;94.22;100848.64;1807932;78;20960;-68
2021/03/30 00:40:15;;;;;;;116.65;55.73;;;;;;;4.22;94.34;100849.18;1807942;79;21535;-68
2021/03/30 00:42:43;;;;;;;125.62;61.00;;;;;;;4.23;94.53;100855.73;1808001;79;20974;-67
2021/03/30 00:45:13;;;;;;;115.75;56.15;;;;;;;4.24;94.47;100856.56;1807990;79;21199;-67
2021/03/30 00:47:46;;;;;;;111.80;54.13;;;;;;;4.23;94.39;100852.19;1807928;79;20952;-67
2021/03/30 00:50:22;;;;;;;112.57;54.63;;;;;;;4.23;94.31;100863.06;1807913;78;20952;-68
2021/03/30 00:52:50;;;;;;;109.85;54.25;;;;;;;4.20;93.98;100858.11;1807995;79;20889;-68
2021/03/30 00:55:37;;;;;;;101.82;52.10;;;;;;;4.19;93.84;100871.41;1783838;79;21035;-67
2021/03/30 00:58:05;;;;;;;105.85;53.38;;;;;;;4.19;93.84;100871.41;1807848;79;23513;-67
2021/03/30 01:00:33;;;;;;;118.97;56.15;;;;;;;4.17;94.10;100865.39;1807853;79;20948;-67
2021/03/30 01:03:01;;;;;;;109.00;53.00;;;;;;;4.16;94.05;100869.17;1807934;79;21127;-67
2021/03/30 01:05:29;;;;;;;117.00;56.63;;;;;;;4.14;94.08;100864.52;1807962;79;21066;-67
2021/03/30 01:08:08;;;;;;;117.45;54.98;;;;;;;4.15;94.12;100864.80;1807942;79;20936;-68
2021/03/30 01:10:51;;;;;;;118.08;55.80;;;;;;;4.14;94.09;100862.62;1807980;79;21382;-68
2021/03/30 01:13:50;;;;;;;116.95;55.92;;;;;;;4.14;94.15;100866.70;1780485;79;20999;-69
2021/03/30 01:16:21;;;;;;;122.25;55.38;;;;;;;4.16;94.15;100871.36;1807935;79;20940;-68
2021/03/30 01:19:22;;;;;;;100.58;48.58;;;;;;;4.16;93.94;100867.28;1807837;79;20916;-68
2021/03/30 01:22:34;;;;;;;116.73;54.15;;;;;;;4.12;93.73;100874.80;1807993;79;20944;-68
2021/03/30 01:25:03;;;;;;;118.15;53.42;;;;;;;4.07;93.84;100878.23;1807448;79;21338;-69
2021/03/30 01:28:09;;;;;;;134.45;58.52;;;;;;;4.01;93.78;100872.97;1807952;79;21078;-68
2021/03/30 01:30:36;;;;;;;147.05;61.23;;;;;;;3.94;93.95;100882.08;1807946;79;21003;-68
2021/03/30 01:33:08;;;;;;;150.93;61.02;;;;;;;3.90;94.35;100879.55;1807903;79;21008;-68
2021/03/30 01:35:37;;;;;;;146.30;62.05;;;;;;;3.87;94.45;100875.95;1807556;79;20976;-69
2021/03/30 01:38:05;;;;;;;131.75;54.25;;;;;;;3.85;94.54;100880.79;1807960;79;22268;-70
2021/03/30 01:40:34;;;;;;;167.05;64.95;;;;;;;3.84;94.69;100883.21;1807857;79;20901;-69
2021/03/30 01:43:04;;;;;;;156.80;64.55;;;;;;;3.80;94.71;100887.47;1807909;79;21046;-69
2021/03/30 01:45:33;;;;;;;142.95;58.87;;;;;;;3.74;94.60;100887.59;1807909;79;20987;-69
2021/03/30 01:48:02;;;;;;;168.97;65.67;;;;;;;3.67;94.47;100885.00;1807913;79;21090;-69
2021/03/30 01:50:29;;;;;;;150.07;62.43;;;;;;;3.58;94.40;100887.25;1778996;79;21302;-69
2021/03/30 01:52:57;;;;;;;157.60;63.05;;;;;;;3.51;94.46;100884.36;1807862;79;20989;-69
2021/03/30 01:55:25;;;;;;;145.45;59.48;;;;;;;3.42;94.34;100891.23;1807860;79;21000;-69
2021/03/30 01:57:54;;;;;;;154.87;59.42;;;;;;;3.33;94.39;100886.69;1807880;79;21011;-69
2021/03/30 02:00:24;;;;;;;159.93;68.33;;;;;;;3.23;94.19;100884.56;1807933;79;21043;-69
2021/03/30 02:02:53;;;;;;;161.30;64.72;;;;;;;3.11;93.95;100893.22;1779142;79;21243;-69
2021/03/30 02:05:21;;;;;;;202.90;69.40;;;;;;;2.97;93.80;100889.06;1807769;79;20900;-69
2021/03/30 02:07:54;;;;;;;195.40;67.12;;;;;;;2.87;93.98;100886.12;1807902;78;20940;-69
2021/03/30 02:13:20;;;;;;;167.47;60.95;;;;;;;2.73;94.29;100886.02;1807965;79;20920;-69
2021/03/30 02:15:41;;;;;;;158.95;58.63;;;;;;;2.66;94.28;100882.05;1806822;79;25294;-69
2021/03/30 02:18:16;;;;;;;186.47;62.78;;;;;;;2.58;94.10;100883.20;1807805;79;20940;-69
2021/03/30 02:20:53;;;;;;;170.38;64.00;;;;;;;2.47;93.88;100878.56;1779171;79;21016;-69
2021/03/30 02:23:25;;;;;;;162.32;56.70;;;;;;;2.35;93.76;100876.34;1807954;79;20932;-68
2021/03/30 02:25:56;;;;;;;165.07;58.25;;;;;;;2.26;93.66;100876.38;1779325;79;21542;-69
2021/03/30 02:28:40;;;;;;;168.40;60.23;;;;;;;2.15;93.72;100871.20;1808001;79;22396;-69
2021/03/30 02:31:04;;;;;;;168.78;59.93;;;;;;;2.08;93.72;100879.11;1754929;79;21187;-69
2021/03/30 02:33:32;;;;;;;163.03;61.50;;;;;;;2.02;93.87;100873.25;1779015;79;20940;-68
2021/03/30 02:36:00;;;;;;;171.10;61.08;;;;;;;1.93;93.71;100876.27;1807754;79;21126;-68
2021/03/30 02:38:30;;;;;;;159.70;62.27;;;;;;;1.85;93.58;100875.73;1779220;79;20936;-69
2021/03/30 02:40:57;;;;;;;136.97;58.83;;;;;;;1.77;93.54;100880.92;1807943;79;22316;-68
2021/03/30 02:43:26;;;;;;;127.00;57.05;;;;;;;1.69;93.53;100877.20;1807839;79;20991;-68
2021/03/30 02:45:55;;;;;;;139.32;59.53;;;;;;;1.60;93.60;100882.60;1807969;79;21006;-68
2021/03/30 02:48:23;;;;;;;142.57;58.33;;;;;;;1.50;93.54;100880.41;1807861;79;21169;-68
2021/03/30 02:50:53;;;;;;;134.45;57.55;;;;;;;1.42;93.55;100882.58;1807786;78;21035;-69
2021/03/30 02:53:20;;;;;;;133.70;58.17;;;;;;;1.33;93.57;100886.09;1807867;79;21362;-69
2021/03/30 02:55:48;;;;;;;138.47;54.53;;;;;;;1.26;93.81;100880.73;1807777;79;20932;-68
2021/03/30 02:58:16;;;;;;;126.33;54.63;;;;;;;1.21;93.86;100876.52;1807847;79;20975;-69
2021/03/30 03:00:44;;;;;;;132.72;55.17;;;;;;;1.15;93.89;100877.96;1807852;79;21134;-68
2021/03/30 03:03:12;;;;;;;129.40;55.45;;;;;;;1.10;94.08;100882.68;1778980;79;20881;-68
2021/03/30 03:05:43;;;;;;;132.97;54.50;;;;;;;1.07;94.20;100881.77;1779032;79;21258;-69
2021/03/30 03:08:10;;;;;;;127.67;52.55;;;;;;;1.06;94.40;100884.17;1779200;79;20955;-68
2021/03/30 03:10:38;;;;;;;132.65;55.67;;;;;;;1.06;94.60;100882.81;1807798;79;21080;-68
2021/03/30 03:13:15;;;;;;;127.85;55.00;;;;;;;1.06;94.81;100883.34;1807839;78;20980;-68
2021/03/30 03:15:43;;;;;;;137.65;60.30;;;;;;;1.07;95.01;100882.30;1807842;79;21169;-67
2021/03/30 03:18:10;;;;;;;135.68;60.58;;;;;;;1.09;95.23;100878.31;1807906;79;22255;-67
2021/03/30 03:20:38;;;;;;;131.82;59.13;;;;;;;1.12;95.43;100877.87;1807390;78;21498;-68
2021/03/30 03:23:06;;;;;;;127.42;56.75;;;;;;;1.16;95.62;100879.59;1807983;79;21145;-68
2021/03/30 03:25:34;;;;;;;128.15;57.10;;;;;;;1.22;95.89;100890.87;1807378;79;21121;-68
2021/03/30 03:28:03;;;;;;;129.82;58.10;;;;;;;1.28;96.29;100882.70;1806310;79;21154;-68
2021/03/30 03:30:32;;;;;;;128.70;60.85;;;;;;;1.37;96.50;100883.24;1806313;79;21370;-68
2021/03/30 03:33:08;;;;;;;138.35;58.98;;;;;;;1.44;96.60;100885.36;1806340;79;21066;-67
2021/03/30 03:35:35;;;;;;;139.47;61.60;;;;;;;1.49;96.63;100880.11;1806291;79;20976;-67
2021/03/30 03:38:04;;;;;;;133.40;60.83;;;;;;;1.55;96.79;100879.22;1777301;79;21134;-68
2021/03/30 03:40:33;;;;;;;117.60;56.50;;;;;;;1.62;97.02;100873.73;1806339;79;21546;-68
2021/03/30 03:43:01;;;;;;;122.30;56.58;;;;;;;1.69;97.21;100869.08;1806269;79;21368;-69
2021/03/30 03:45:28;;;;;;;112.68;54.83;;;;;;;1.76;97.20;100873.03;1806201;78;20932;-68
2021/03/30 03:47:56;;;;;;;117.77;53.08;;;;;;;1.79;97.23;100879.35;1806277;79;21102;-68
2021/03/30 03:50:24;;;;;;;122.20;58.68;;;;;;;1.82;97.20;100876.19;1806219;79;21547;-66
2021/03/30 03:52:55;;;;;;;118.45;55.58;;;;;;;1.85;97.16;100885.22;1806294;79;21051;-69
2021/03/30 03:55:23;;;;;;;116.80;54.80;;;;;;;1.86;97.08;100884.99;1807003;79;21360;-69
2021/03/30 03:57:57;;;;;;;108.92;51.77;;;;;;;1.88;97.11;100891.53;1806182;79;20932;-70
2021/03/30 04:00:25;;;;;;;129.20;61.92;;;;;;;1.89;97.21;100894.55;1806270;78;21119;-71
2021/03/30 04:03:22;;;;;;;129.35;57.58;;;;;;;1.92;97.30;100893.56;1806250;79;21620;-71
2021/03/30 04:06:09;;;;;;;118.93;52.05;;;;;;;1.93;97.30;100893.05;1793715;79;20925;-69
2021/03/30 04:08:43;;;;;;;129.03;57.35;;;;;;;1.95;97.33;100894.47;1806329;79;22165;-69
2021/03/30 04:11:10;;;;;;;113.32;52.50;;;;;;;1.98;97.43;100895.90;1806201;79;20941;-71
2021/03/30 04:13:38;;;;;;;118.33;52.95;;;;;;;2.01;97.41;100906.81;1806173;79;21532;-69
2021/03/30 04:16:06;;;;;;;118.65;53.60;;;;;;;2.04;97.54;100905.83;1806186;79;21011;-69
2021/03/30 04:18:34;;;;;;;111.72;54.23;;;;;;;2.08;97.63;100910.27;1806341;78;21519;-69
2021/03/30 04:21:04;;;;;;;104.95;48.73;;;;;;;2.13;97.81;100911.24;1777650;79;22095;-69
2021/03/30 04:23:33;;;;;;;116.30;51.80;;;;;;;2.19;97.99;100913.05;1806313;78;21079;-69
2021/03/30 04:26:01;;;;;;;108.40;50.03;;;;;;;2.28;98.28;100913.03;1806364;79;21471;-69
2021/03/30 04:28:29;;;;;;;115.25;49.03;;;;;;;2.37;98.45;100921.65;1806227;79;20960;-69
2021/03/30 04:30:57;;;;;;;96.00;46.00;;;;;;;2.47;98.63;100921.94;1806257;79;21047;-69
2021/03/30 04:33:25;;;;;;;87.55;44.30;;;;;;;2.57;98.78;100918.15;1806245;79;22618;-69
2021/03/30 04:35:53;;;;;;;97.00;47.40;;;;;;;2.67;98.83;100916.24;1806137;79;21166;-70
2021/03/30 04:38:21;;;;;;;99.62;47.03;;;;;;;2.77;98.93;100924.65;1804911;79;21566;-71
2021/03/30 04:40:53;;;;;;;96.92;48.63;;;;;;;2.86;98.88;100924.63;1805286;79;21511;-71
2021/03/30 04:43:22;;;;;;;97.85;48.38;;;;;;;2.93;98.68;100931.27;1806096;79;20932;-71
2021/03/30 04:45:50;;;;;;;96.45;48.08;;;;;;;2.98;98.41;100928.69;1806056;78;22105;-69
2021/03/30 04:48:18;;;;;;;100.15;50.60;;;;;;;3.03;98.27;100931.53;1805566;79;21527;-67
2021/03/30 04:50:47;;;;;;;106.15;53.38;;;;;;;3.08;98.06;100934.38;1806096;79;21460;-67
2021/03/30 04:53:14;;;;;;;106.45;50.85;;;;;;;3.17;97.94;100934.88;1798581;79;21100;-67
2021/03/30 04:55:42;;;;;;;103.45;50.80;;;;;;;3.23;97.78;100938.84;1795061;80;21208;-68
2021/03/30 04:58:11;;;;;;;94.75;50.15;;;;;;;3.30;97.67;100935.48;1795145;80;21138;-70
2021/03/30 05:00:38;;;;;;;94.85;47.88;;;;;;;3.38;97.41;100935.67;1777688;80;21742;-69
2021/03/30 05:03:06;;;;;;;94.03;48.38;;;;;;;3.43;97.18;100941.76;1795252;80;20998;-68
2021/03/30 05:05:34;;;;;;;99.75;49.60;;;;;;;3.47;96.97;100943.73;1795176;80;21132;-70
2021/03/30 05:08:03;;;;;;;117.25;51.95;;;;;;;3.53;96.88;100944.69;1795398;80;21183;-69
2021/03/30 05:10:31;;;;;;;90.35;47.43;;;;;;;3.60;96.81;100944.87;1795425;80;22276;-70
2021/03/30 05:13:01;;;;;;;93.78;44.30;;;;;;;3.68;96.72;100943.69;1795456;80;20931;-70
2021/03/30 05:15:29;;;;;;;88.52;43.80;;;;;;;3.74;96.40;100949.53;1801896;78;20948;-69
2021/03/30 05:17:56;;;;;;;94.72;47.70;;;;;;;3.81;96.11;100944.81;1806935;79;21151;-69
2021/03/30 05:20:24;;;;;;;97.17;49.98;;;;;;;3.90;96.02;100955.61;1806284;79;21543;-70
2021/03/30 05:22:51;;;;;;;91.22;46.85;;;;;;;4.00;96.07;100954.19;1806231;79;22137;-70
2021/03/30 05:25:20;;;;;;;99.62;47.88;;;;;;;4.10;96.10;100952.49;1806134;79;20929;-70
2021/03/30 05:27:48;;;;;;;102.10;48.83;;;;;;;4.20;96.07;100954.07;1806187;79;21071;-69
2021/03/30 05:30:17;;;;;;;82.27;45.17;;;;;;;4.30;95.94;100946.66;1806252;79;20988;-68
2021/03/30 05:32:45;;;;;;;84.07;43.42;;;;;;;4.39;95.82;100947.94;1806117;79;20988;-69
2021/03/30 05:35:17;;;;;;;74.07;37.93;;;;;;;4.55;95.11;100945.82;1805280;79;22147;-69
2021/03/30 05:37:45;;;;;;;60.88;30.35;;;;;;;4.55;95.11;100945.82;1730228;79;21531;-69
2021/03/30 05:40:16;;;;;;;52.88;27.37;;;;;;;4.63;93.43;100949.48;1805824;78;20937;-68
2021/03/30 05:42:44;;;;;;;50.20;25.23;;;;;;;4.73;91.49;100950.75;1806178;79;21115;-68
2021/03/30 05:45:15;;;;;;;44.65;23.75;;;;;;;4.80;88.71;100954.98;1806177;79;21166;-69
2021/03/30 05:47:43;;;;;;;44.13;23.77;;;;;;;4.87;86.99;100959.74;1806214;79;21482;-69
2021/03/30 05:50:17;;;;;;;45.67;22.32;;;;;;;4.92;84.80;100952.20;1806092;79;20928;-68
2021/03/30 05:52:50;;;;;;;46.50;24.82;;;;;;;5.00;84.17;100947.73;1806213;79;20980;-69
2021/03/30 05:55:26;;;;;;;46.70;22.17;;;;;;;5.08;83.58;100950.05;1806332;79;21115;-69
2021/03/30 05:57:55;;;;;;;41.92;20.85;;;;;;;5.14;81.44;100955.05;1789643;79;21154;-69
2021/03/30 06:00:36;;;;;;;33.75;19.37;;;;;;;5.21;78.73;100952.97;1806206;79;21583;-66
2021/03/30 06:03:10;;;;;;;35.00;19.02;;;;;;;5.27;77.53;100955.53;1805001;79;20972;-66
2021/03/30 06:05:38;;;;;;;38.35;19.82;;;;;;;5.34;77.42;100948.56;1806980;79;21472;-66
2021/03/30 06:08:06;;;;;;;49.80;20.60;;;;;;;5.39;77.56;100945.11;1819277;78;21700;-69
2021/03/30 06:10:35;;;;;;;45.50;26.70;;;;;;;5.46;77.31;100957.48;1829190;78;21547;-68
2021/03/30 06:13:05;;;;;;;48.98;28.23;;;;;;;5.64;75.30;100955.87;1829747;78;22053;-66
2021/03/30 06:15:35;;;;;;;47.00;24.05;;;;;;;5.64;75.30;100955.87;1800163;78;21158;-68
2021/03/30 06:18:19;;;;;;;51.60;24.63;;;;;;;5.75;74.45;100954.67;1829581;78;20933;-65
2021/03/30 06:20:47;;;;;;;40.25;22.25;;;;;;;5.87;74.35;100958.91;1810481;78;21616;-70
2021/03/30 06:23:25;;;;;;;40.15;20.62;;;;;;;5.94;73.31;100951.42;1796804;79;21102;-67
2021/03/30 06:25:55;;;;;;;45.43;22.80;;;;;;;6.04;73.50;100958.09;1799386;79;21263;-69
2021/03/30 06:28:29;;;;;;;40.38;21.97;;;;;;;6.08;72.92;100959.23;1795340;79;21178;-70
2021/03/30 06:31:06;;;;;;;71.60;40.60;;;;;;;6.12;73.15;100957.66;1800802;78;21097;-68
2021/03/30 06:33:36;;;;;;;54.90;28.47;;;;;;;6.19;71.38;100956.41;1800897;79;21084;-69
2021/03/30 06:36:25;;;;;;;46.05;23.40;;;;;;;6.29;69.19;100954.34;1797809;78;21163;-69
2021/03/30 06:38:58;;;;;;;41.75;19.60;;;;;;;6.40;66.84;100945.73;1795580;79;21340;-68
2021/03/30 06:44:34;;;;;;;37.78;19.82;;;;;;;6.73;64.32;100952.41;1870134;75;22678;-70
2021/03/30 06:47:15;;;;;;;37.48;18.75;;;;;;;6.83;63.95;100957.15;1826745;77;21560;-68
2021/03/30 06:52:37;;;;;;;34.60;19.10;;;;;;;7.11;63.19;100952.77;1861281;75;21964;-69
2021/03/30 06:55:11;;;;;;;43.33;23.15;;;;;;;7.24;63.54;100958.35;1835766;78;20911;-68
2021/03/30 06:57:49;;;;;;;38.40;22.00;;;;;;;7.46;62.35;100963.73;1758245;81;21379;-70
2021/03/30 07:00:26;;;;;;;35.40;18.20;;;;;;;7.61;59.96;100965.20;1772531;80;21595;-67
2021/03/30 07:03:08;;;;;;;34.05;18.17;;;;;;;7.67;56.79;100968.80;1742691;80;21490;-67
2021/03/30 07:05:44;;;;;;;34.75;19.17;;;;;;;7.66;57.73;100965.78;1776415;80;20942;-66
2021/03/30 07:08:19;;;;;;;39.95;18.73;;;;;;;7.74;58.90;100970.22;1767645;80;21469;-67
2021/03/30 07:10:51;;;;;;;32.85;17.62;;;;;;;7.83;59.81;100975.48;1766786;81;21373;-68
2021/03/30 07:13:21;;;;;;;30.55;16.52;;;;;;;7.92;58.23;100977.19;1766883;81;21009;-67
2021/03/30 07:16:02;;;;;;;35.80;17.62;;;;;;;8.01;58.19;100976.15;1772011;79;21036;-66
2021/03/30 07:18:41;;;;;;;38.05;14.98;;;;;;;8.14;58.69;100984.69;1751290;82;21157;-66
2021/03/30 07:21:23;;;;;;;36.45;16.35;;;;;;;8.23;55.86;100982.27;1751319;82;21111;-67
2021/03/30 07:24:07;;;;;;;35.30;15.80;;;;;;;8.24;55.14;100988.02;1751274;82;21253;-69
2021/03/30 07:26:48;;;;;;;28.70;14.78;;;;;;;8.24;54.77;100986.66;1751356;80;21499;-66
2021/03/30 07:29:20;;;;;;;29.85;14.87;;;;;;;8.26;53.47;100992.14;1750963;82;20953;-67
2021/03/30 07:31:56;;;;;;;30.15;15.48;;;;;;;8.32;54.34;100996.27;1722555;82;26541;-69
2021/03/30 07:34:34;;;;;;;34.80;18.65;;;;;;;8.58;53.68;100996.71;1751335;80;21056;-69
2021/03/30 07:37:05;;;;;;;33.63;18.10;;;;;;;9.07;54.65;100998.50;1750865;81;22409;-69
2021/03/30 07:39:38;;;;;;;31.68;16.67;;;;;;;9.53;51.89;100988.94;1751384;80;20902;-70
2021/03/30 07:42:07;;;;;;;35.98;17.00;;;;;;;9.74;51.52;100989.77;1751257;80;21052;-69
2021/03/30 07:44:34;;;;;;;32.73;17.35;;;;;;;9.96;50.60;100989.45;1750620;81;21107;-69
2021/03/30 07:47:04;;;;;;;32.40;16.87;;;;;;;10.20;50.56;100984.50;1750648;82;21493;-72
2021/03/30 07:49:31;;;;;;;29.50;15.65;;;;;;;10.46;49.38;100982.47;1740695;81;22358;-69
2021/03/30 07:52:27;;;;;;;29.50;16.25;;;;;;;10.76;47.11;100984.83;1739366;81;21572;-69
2021/03/30 07:55:25;;;;;;;36.20;17.17;;;;;;;10.89;45.89;100989.70;1720216;82;21010;-69
2021/03/30 07:58:18;;;;;;;30.80;16.65;;;;;;;10.96;47.26;100981.98;1749081;80;21146;-68
2021/03/30 08:00:47;;;;;;;34.10;17.40;;;;;;;11.25;46.38;100989.73;1749286;82;20997;-69
2021/03/30 08:03:23;;;;;;;32.42;16.85;;;;;;;11.39;45.21;100997.34;1748735;82;22271;-70
2021/03/30 08:06:09;;;;;;;33.85;17.12;;;;;;;11.39;44.74;100992.67;1745830;82;21148;-68
2021/03/30 08:09:00;;;;;;;37.20;19.35;;;;;;;11.56;45.21;100994.44;1748515;82;20965;-68
2021/03/30 08:11:47;;;;;;;36.65;18.57;;;;;;;11.88;44.02;100987.60;1739893;82;20982;-69
2021/03/30 08:14:33;;;;;;;36.10;19.42;;;;;;;12.04;43.21;100988.28;1736484;82;21160;-69
2021/03/30 08:17:07;;;;;;;37.45;18.00;;;;;;;12.19;43.78;100987.54;1737017;82;20970;-69
2021/03/30 08:19:36;;;;;;;28.38;14.40;;;;;;;12.37;40.80;100981.84;1740653;82;21009;-70
2021/03/30 08:22:06;;;;;;;36.73;18.65;;;;;;;12.37;41.32;100981.02;1709500;82;21190;-72
2021/03/30 08:24:48;;;;;;;29.82;16.37;;;;;;;12.52;42.34;100987.73;1741529;82;21247;-70
2021/03/30 08:27:36;;;;;;;34.58;16.80;;;;;;;12.59;39.63;100997.02;1728984;82;21135;-68
2021/03/30 08:30:18;;;;;;;37.80;16.70;;;;;;;12.63;40.40;100984.30;1718926;82;21187;-70
2021/03/30 08:32:48;;;;;;;30.90;16.48;;;;;;;12.96;40.55;100986.59;1735532;80;21136;-69
2021/03/30 08:35:33;;;;;;;29.50;16.77;;;;;;;13.24;38.93;100986.23;1758687;81;21000;-67
2021/03/30 08:38:02;;;;;;;26.48;15.38;;;;;;;13.39;38.51;100985.98;1731509;80;20966;-69
2021/03/30 08:40:40;;;;;;;31.93;18.35;;;;;;;13.43;38.44;100985.64;1758727;81;21569;-69
2021/03/30 08:43:19;;;;;;;29.42;14.87;;;;;;;13.54;38.69;100981.59;1758511;81;21568;-67
2021/03/30 08:46:09;;;;;;;25.77;16.27;;;;;;;13.71;37.30;100979.11;1757963;81;21045;-69
2021/03/30 08:48:50;;;;;;;29.18;17.15;;;;;;;13.90;37.22;100979.03;1756994;81;20986;-72
2021/03/30 08:51:22;;;;;;;32.73;16.45;;;;;;;14.11;37.91;100985.01;1723120;81;21179;-70
2021/03/30 08:53:50;;;;;;;30.20;16.60;;;;;;;14.30;36.98;100978.84;1754148;81;21204;-71
2021/03/30 08:56:28;;;;;;;27.98;15.23;;;;;;;14.37;36.57;100977.88;1754114;81;21428;-73
2021/03/30 08:58:57;;;;;;;26.87;14.43;;;;;;;14.41;36.13;100984.46;1754099;81;21451;-71
2021/03/30 09:01:25;;;;;;;27.73;14.63;;;;;;;14.48;36.55;100980.70;1754100;81;21143;-72
2021/03/30 09:03:55;;;;;;;48.40;17.02;;;;;;;14.56;34.81;100980.55;1754079;81;20962;-73
2021/03/30 09:09:21;;;;;;;25.08;14.73;;;;;;;14.73;35.89;100976.59;1871938;76;22722;-70
2021/03/30 09:11:50;;;;;;;24.15;11.70;;;;;;;15.04;34.36;100982.25;1757275;81;21078;-73
2021/03/30 09:14:21;;;;;;;15.25;9.50;;;;;;;15.26;33.89;100974.56;1768728;79;21130;-73
2021/03/30 09:16:51;;;;;;;19.92;9.13;;;;;;;15.38;32.09;100970.69;1757756;80;21020;-72
2021/03/30 09:22:09;;;;;;;23.10;12.57;;;;;;;15.22;33.09;100967.20;1872928;74;27865;-70
2021/03/30 09:27:06;;;;;;;26.15;11.20;;;;;;;15.43;32.13;100969.75;1848642;77;21368;-74
2021/03/30 09:29:35;;;;;;;16.35;10.00;;;;;;;15.37;32.37;100970.43;1849216;77;21001;-75
2021/03/30 09:32:06;;;;;;;22.75;9.05;;;;;;;15.43;32.23;100966.98;1849671;77;21096;-74
2021/03/30 09:34:39;;;;;;;17.85;9.00;;;;;;;15.62;31.72;100970.38;1848869;77;21177;-74
2021/03/30 09:37:07;;;;;;;15.95;8.45;;;;;;;15.68;31.28;100964.15;1842840;77;21609;-73
2021/03/30 09:39:36;;;;;;;15.03;9.50;;;;;;;15.63;30.87;100967.86;1738785;81;22698;-74
2021/03/30 09:42:06;;;;;;;18.55;10.88;;;;;;;15.55;32.27;100962.27;1841989;77;20995;-69
2021/03/30 09:44:43;;;;;;;15.40;9.53;;;;;;;15.55;31.18;100960.88;1845568;77;20997;-71
2021/03/30 09:47:14;;;;;;;17.30;10.35;;;;;;;15.47;32.43;100964.66;1849332;77;21136;-73
2021/03/30 09:49:44;;;;;;;18.15;9.68;;;;;;;15.58;31.62;100956.95;1856759;76;21097;-68
2021/03/30 09:52:13;;;;;;;15.78;10.78;;;;;;;15.53;31.83;100957.05;1824147;78;21130;-70
2021/03/30 09:54:43;;;;;;;15.20;8.95;;;;;;;15.48;32.83;100949.69;1790808;79;21621;-71
2021/03/30 09:57:31;;;;;;;14.70;8.95;;;;;;;15.70;31.79;100946.66;1797362;78;21105;-73
2021/03/30 10:00:00;;;;;;;16.30;8.35;;;;;;;15.87;30.82;100952.30;1780768;79;21171;-69
2021/03/30 10:02:31;;;;;;;18.95;9.58;;;;;;;15.76;30.62;100960.06;1816258;78;21635;-66
2021/03/30 10:05:01;;;;;;;13.22;8.28;;;;;;;15.72;30.60;100957.67;1787374;78;22056;-69
2021/03/30 10:07:35;;;;;;;30.35;10.88;;;;;;;15.60;29.99;100962.17;1802693;79;21121;-73
2021/03/30 10:10:10;;;;;;;17.87;8.98;;;;;;;15.42;30.87;100944.59;1810711;78;20982;-71
2021/03/30 10:13:05;;;;;;;13.08;8.05;;;;;;;15.47;31.19;100947.23;1802357;79;20968;-71
2021/03/30 10:15:36;;;;;;;19.37;10.25;;;;;;;15.71;30.94;100949.11;1811827;78;21122;-69
2021/03/30 10:18:06;;;;;;;16.45;9.78;;;;;;;15.93;31.09;100946.06;1814714;78;22049;-71
2021/03/30 10:20:39;;;;;;;19.37;10.05;;;;;;;15.86;30.43;100942.36;1813753;78;21200;-69
2021/03/30 10:23:17;;;;;;;18.60;10.78;;;;;;;15.88;30.97;100935.13;1818448;78;21187;-72
2021/03/30 10:25:45;;;;;;;14.70;8.75;;;;;;;16.07;31.24;100941.25;1820709;78;21527;-68
2021/03/30 10:28:12;;;;;;;35.70;18.98;;;;;;;16.33;30.65;100944.92;1817402;78;21185;-70
2021/03/30 10:30:46;;;;;;;13.53;8.15;;;;;;;16.34;29.41;100939.63;1768130;78;22556;-70
2021/03/30 10:33:15;;;;;;;21.17;11.30;;;;;;;15.90;29.57;100931.47;1778102;79;21518;-68
2021/03/30 10:35:42;;;;;;;14.43;9.33;;;;;;;15.63;30.62;100936.03;1792244;80;21146;-67
2021/03/30 10:38:11;;;;;;;15.85;9.53;;;;;;;15.72;31.29;100925.83;1782212;79;21175;-72
2021/03/30 10:40:40;;;;;;;15.60;9.30;;;;;;;15.94;31.25;100933.85;1806276;78;21577;-71
2021/03/30 10:43:24;;;;;;;16.82;9.25;;;;;;;16.09;31.11;100920.41;1793326;79;21199;-70
2021/03/30 10:45:54;;;;;;;23.67;12.65;;;;;;;16.32;30.61;100919.73;1818661;78;21024;-69
2021/03/30 10:48:22;;;;;;;46.05;23.50;;;;;;;16.34;30.29;100918.03;1813468;78;21139;-69
2021/03/30 10:50:53;;;;;;;25.10;11.43;;;;;;;16.14;29.97;100918.06;1783035;79;21574;-68
2021/03/30 10:53:22;;;;;;;15.80;9.15;;;;;;;15.98;30.81;100911.31;1806162;78;21163;-68
2021/03/30 10:55:51;;;;;;;18.85;10.53;;;;;;;16.01;31.18;100917.59;1800837;79;21700;-67
2021/03/30 10:58:22;;;;;;;20.20;10.75;;;;;;;16.16;30.70;100912.45;1802376;78;20987;-68
2021/03/30 11:00:50;;;;;;;18.48;10.00;;;;;;;16.43;30.89;100910.56;1800619;78;21124;-68
2021/03/30 11:03:19;;;;;;;20.17;9.73;;;;;;;16.44;30.01;100910.81;1806853;78;21108;-68
2021/03/30 11:05:48;;;;;;;15.08;8.20;;;;;;;16.46;30.80;100914.08;1802356;79;21164;-71
2021/03/30 11:08:15;;;;;;;20.02;10.72;;;;;;;16.59;30.24;100911.75;1801542;78;21374;-68
2021/03/30 11:10:43;;;;;;;22.70;11.15;;;;;;;16.74;29.79;100906.34;1804411;78;20995;-70
2021/03/30 11:13:13;;;;;;;22.82;10.65;;;;;;;16.86;29.69;100901.52;1808423;78;21553;-68
2021/03/30 11:15:40;;;;;;;18.65;9.00;;;;;;;16.82;29.89;100906.33;1804634;78;21022;-69
2021/03/30 11:18:08;;;;;;;14.70;8.55;;;;;;;16.82;28.86;100898.58;1804491;78;21117;-69
2021/03/30 11:20:36;;;;;;;15.32;8.43;;;;;;;16.78;30.06;100903.14;1794793;78;21384;-68
2021/03/30 11:23:06;;;;;;;16.40;9.20;;;;;;;16.73;28.90;100898.59;1763201;80;20914;-68
2021/03/30 11:25:37;;;;;;;20.77;9.25;;;;;;;16.58;29.59;100899.02;1804125;78;21014;-71
2021/03/30 11:28:08;;;;;;;15.18;8.88;;;;;;;16.28;29.68;100901.30;1804892;78;21157;-71
2021/03/30 11:31:15;;;;;;;20.43;9.80;;;;;;;16.16;29.84;100893.63;1815222;78;21107;-71
2021/03/30 11:33:22;;;;;;;13.50;8.65;;;;;;;16.33;30.24;100895.05;1751357;80;22048;-71
2021/03/30 11:35:56;;;;;;;13.98;8.70;;;;;;;16.74;30.44;100887.75;1809989;77;21505;-73
2021/03/30 11:38:21;;;;;;;;;;;;;;;16.86;29.62;100887.65;1757450;81;21135;-71
2021/03/30 11:40:48;;;;;;;13.25;8.68;;;;;;;16.88;29.59;100882.02;1794868;79;20516;-70
2021/03/30 11:43:17;;;;;;;14.20;9.30;;;;;;;16.89;30.14;100880.88;1794273;79;21097;-68
2021/03/30 11:45:45;;;;;;;16.12;9.60;;;;;;;17.10;29.46;100883.25;1785598;79;21358;-70
2021/03/30 11:48:13;;;;;;;14.87;9.18;;;;;;;17.33;28.36;100881.69;1808911;78;21018;-69
2021/03/30 11:50:40;;;;;;;16.45;9.40;;;;;;;17.38;29.42;100880.91;1783320;79;21169;-71